KSOP/SOP METAR and TAF weather

Enter ICAO airport designator
Station Type Date Time Source
KSOP METAR 2019/02/18 03:56 UTC NOAA

KSOP 180356Z AUTO 12004KT 1 1/2SM -RA BR OVC003 04/04 A2990 RMK AO2 SLP144 P0001 T00390039 400440011


Station Type Date Time Source
KSOP Decoded METAR 2019/02/18 03:56 UTC NOAA

Pinehurst/Southern Pines, Moore County Airport, NC, United States (KSOP) 35-14N 079-24W
Feb 17, 2019 - 10:56 PM EST / 2019.02.18 0356 UTC
Wind: from the ESE (120 degrees) at 5 MPH (4 KT):0
Visibility: 1 1/2 mile(s):0
Sky conditions: overcast
Weather: light rain; mist
Precipitation last hour: 0.01 inches
Temperature: 39.0 F (3.9 C)
Dew Point: 39.0 F (3.9 C)
Relative Humidity: 100%
Pressure (altimeter): 29.9 in. Hg (1012 hPa)
ob: KSOP 180356Z AUTO 12004KT 1 1/2SM -RA BR OVC003 04/04 A2990 RMK AO2 SLP144 P0001 T00390039 400440011
cycle: 4

Station Type Date Time Source
KSOP TAF UTC NOAA

Error!


Example: see airport list